Keyport, New Jersey
Current Conditions -  °F | °C
As of 2:35 AM on Thursday 23 Oct 2014 (Local Time) from KLDJ Reporting Station
Overcast Overcast  
Wind Chill: 57°   Ceiling: 2500
Heat Index: 57°   Visibility: 10mi
Dew Point: 50°   Wind: 16mph
Humidity: 77%   Direction: 20°NNE
Pressure: 29.74"   Gusts: 21mph
Location:  40.44°N, 74.2°W
Report Text: KLDJ 230635Z AUTO 02014G18KT 10SM OVC025 14/10 A2974 RMK AO2 T01380098
Loading
Personal Weather Stations






























Interactive Weather Map
Tropical Storm Tracking
New forecast layout! Learn more

10-Day Weather Forecast

Advertisements
Track Severe Weather on mobile